createdAt,value
2019-01-21T00:01:49.735Z,69.30
2019-01-21T00:04:30.781Z,70.13
2019-01-21T00:07:12.399Z,75.17
2019-01-21T00:09:54.005Z,67.47
2019-01-21T00:12:35.744Z,74.20
2019-01-21T00:15:16.809Z,82.57
2019-01-21T00:17:58.558Z,81.67
2019-01-21T00:20:40.041Z,73.87
2019-01-21T00:23:21.598Z,80.67
2019-01-21T00:26:04.146Z,75.50
2019-01-21T00:31:16.533Z,74.10
2019-01-21T00:34:05.389Z,74.13
2019-01-21T00:36:54.248Z,84.40
2019-01-21T00:39:43.052Z,72.60
2019-01-21T00:42:31.936Z,85.37
2019-01-21T00:45:20.716Z,80.57
2019-01-21T00:48:09.449Z,74.07
2019-01-21T00:50:58.388Z,69.30
2019-01-21T00:53:28.241Z,76.63
2019-01-21T00:56:17.050Z,73.30
2019-01-21T00:59:05.921Z,79.23
2019-01-21T01:01:54.710Z,74.07
2019-01-21T01:04:36.187Z,74.23
2019-01-21T01:07:17.516Z,68.23
2019-01-21T01:09:59.215Z,73.33
2019-01-21T01:12:40.698Z,71.97
2019-01-21T01:15:22.409Z,74.67
2019-01-21T01:20:45.905Z,70.10
2019-01-21T01:26:09.472Z,75.27
2019-01-21T01:28:50.971Z,73.30
2019-01-21T01:31:32.304Z,65.50
2019-01-21T01:34:13.773Z,71.13
2019-01-21T01:36:55.131Z,70.57
2019-01-21T01:39:36.498Z,75.53
2019-01-21T01:42:18.041Z,78.13
2019-01-21T01:44:59.835Z,69.90
2019-01-21T01:47:44.921Z,63.17
2019-01-21T01:50:24.955Z,67.10
2019-01-21T01:53:08.977Z,72.97
2019-01-21T01:55:50.701Z,73.27
2019-01-21T01:58:32.268Z,69.77
2019-01-21T02:01:13.716Z,73.33
2019-01-21T02:03:55.267Z,69.20
2019-01-21T02:06:25.213Z,77.57
2019-01-21T02:09:13.990Z,68.23
2019-01-21T02:12:02.770Z,72.97
2019-01-21T02:14:51.828Z,67.87
2019-01-21T02:17:40.998Z,70.37
2019-01-21T02:20:29.697Z,69.97
2019-01-21T02:23:40.377Z,79.23
2019-01-21T02:26:49.513Z,69.67
2019-01-21T02:29:57.189Z,78.10
2019-01-21T02:33:05.240Z,76.53
2019-01-21T02:36:00.674Z,69.20
2019-01-21T02:39:08.390Z,71.27
2019-01-21T02:42:16.091Z,63.23
2019-01-21T02:45:23.843Z,76.43
2019-01-21T02:48:31.762Z,76.80
2019-01-21T02:51:39.445Z,71.90
2019-01-21T02:54:35.486Z,74.03
2019-01-21T02:57:43.253Z,65.53
2019-01-21T03:00:35.954Z,73.20
2019-01-21T03:03:43.979Z,84.07
2019-01-21T03:06:51.654Z,79.50
2019-01-21T03:09:59.336Z,68.17
2019-01-21T03:13:07.079Z,71.40
2019-01-21T03:16:14.828Z,69.47
2019-01-21T03:19:22.544Z,64.60
2019-01-21T03:22:30.660Z,71.80
2019-01-21T03:25:38.376Z,73.30
2019-01-21T03:28:46.133Z,74.47
2019-01-21T03:31:53.847Z,70.50
2019-01-21T03:35:01.663Z,70.57
2019-01-21T03:38:09.430Z,73.20
2019-01-21T03:41:17.054Z,70.57
2019-01-21T03:44:10.506Z,68.90
2019-01-21T03:47:18.300Z,72.17
2019-01-21T03:50:26.002Z,70.50
2019-01-21T03:53:27.738Z,73.90
2019-01-21T03:56:35.437Z,69.23
2019-01-21T03:59:43.189Z,66.90
2019-01-21T04:02:50.849Z,67.93
2019-01-21T04:05:42.703Z,63.67
2019-01-21T04:08:50.437Z,73.70
2019-01-21T04:11:58.141Z,67.63
2019-01-21T04:15:05.866Z,69.97
2019-01-21T04:18:13.601Z,71.87
2019-01-21T04:21:21.314Z,76.57
2019-01-21T04:24:29.157Z,75.53
2019-01-21T04:27:36.870Z,70.03
2019-01-21T04:30:44.587Z,69.40
2019-01-21T04:33:52.311Z,68.00
2019-01-21T04:37:00.063Z,70.10
2019-01-21T04:40:07.709Z,64.00
2019-01-21T04:43:15.432Z,65.60
2019-01-21T04:46:23.583Z,73.57
2019-01-21T04:49:04.624Z,69.33
2019-01-21T04:51:46.017Z,68.30
2019-01-21T04:57:28.802Z,67.80
2019-01-21T05:00:10.267Z,76.23
2019-01-21T05:03:15.124Z,74.10
2019-01-21T05:06:22.830Z,72.20
2019-01-21T05:09:30.493Z,60.50
2019-01-21T05:12:38.227Z,68.40
2019-01-21T05:15:45.945Z,66.40
2019-01-21T05:18:53.686Z,66.80
2019-01-21T05:22:01.489Z,64.50
2019-01-21T05:24:53.951Z,72.80
2019-01-21T05:27:50.340Z,61.03
2019-01-21T05:30:58.130Z,73.80
2019-01-21T05:34:06.129Z,71.03
2019-01-21T05:37:13.900Z,67.80
2019-01-21T05:40:16.805Z,70.33
2019-01-21T05:43:27.604Z,66.07
2019-01-21T05:46:09.111Z,70.97
2019-01-21T05:48:50.737Z,72.17
2019-01-21T05:51:31.948Z,65.67
2019-01-21T05:54:13.373Z,79.53
2019-01-21T05:56:54.966Z,65.87
2019-01-21T05:59:37.410Z,78.07
2019-01-21T06:02:18.960Z,72.93
2019-01-21T06:05:00.288Z,73.63
2019-01-21T06:13:48.370Z,65.27
2019-01-21T06:19:11.561Z,68.00
2019-01-21T06:21:52.801Z,63.20
2019-01-21T06:24:34.315Z,74.63
2019-01-21T06:27:15.855Z,67.17
2019-01-21T06:30:18.206Z,66.07
2019-01-21T06:33:28.840Z,72.07
2019-01-21T06:36:36.759Z,77.20
2019-01-21T06:39:44.449Z,64.57
2019-01-21T06:42:52.171Z,79.33
2019-01-21T06:45:32.997Z,73.03
2019-01-21T06:48:14.542Z,69.17
2019-01-21T06:51:22.334Z,77.47
2019-01-21T06:54:37.789Z,73.43
2019-01-21T06:57:45.544Z,68.20
2019-01-21T07:00:53.268Z,82.67
2019-01-21T07:04:01.044Z,73.33
2019-01-21T07:07:08.797Z,76.10
2019-01-21T07:10:16.576Z,65.23
2019-01-21T07:13:24.316Z,67.30
2019-01-21T07:16:32.200Z,77.57
2019-01-21T07:19:39.937Z,69.80
2019-01-21T07:22:47.646Z,64.03
2019-01-21T07:25:55.453Z,70.07
2019-01-21T07:29:03.419Z,72.10
2019-01-21T07:32:11.131Z,75.13
2019-01-21T07:35:25.874Z,68.97
2019-01-21T07:38:33.592Z,69.67
2019-01-21T07:41:41.577Z,61.27
2019-01-21T07:44:22.981Z,74.43
2019-01-21T07:47:04.405Z,65.27
2019-01-21T07:50:14.200Z,64.17
2019-01-21T07:53:25.437Z,64.80
2019-01-21T07:56:33.189Z,68.47
2019-01-21T07:59:40.943Z,64.43
2019-01-21T08:02:49.975Z,63.73
2019-01-21T08:05:52.533Z,68.90
2019-01-21T08:08:53.892Z,67.73
2019-01-21T08:11:47.253Z,64.87
2019-01-21T08:14:54.950Z,62.77
2019-01-21T08:18:02.886Z,65.83
2019-01-21T08:21:00.174Z,62.50
2019-01-21T08:24:07.971Z,78.63
2019-01-21T08:27:15.763Z,68.10
2019-01-21T08:30:23.452Z,62.03
2019-01-21T08:33:31.433Z,64.90
2019-01-21T08:36:39.132Z,85.20
2019-01-21T08:39:46.924Z,70.40
2019-01-21T08:42:28.570Z,69.87
2019-01-21T08:45:09.975Z,66.30
2019-01-21T08:48:01.185Z,73.20
2019-01-21T08:50:56.868Z,66.10
2019-01-21T08:53:34.390Z,67.50
2019-01-21T08:56:42.014Z,66.90
2019-01-21T08:59:43.026Z,67.03
2019-01-21T09:02:50.793Z,64.83
2019-01-21T09:05:58.505Z,68.37
2019-01-21T09:09:17.990Z,62.03
2019-01-21T09:12:25.791Z,63.20
2019-01-21T09:15:33.784Z,70.07
2019-01-21T09:18:35.138Z,64.40
2019-01-21T09:21:42.845Z,75.93
2019-01-21T09:24:50.596Z,63.73
2019-01-21T09:27:42.852Z,54.40
2019-01-21T09:30:50.649Z,72.30
2019-01-21T09:33:58.401Z,59.83
2019-01-21T09:36:39.325Z,60.50
2019-01-21T09:39:20.195Z,60.33
2019-01-21T09:42:01.877Z,66.30
2019-01-21T09:44:43.341Z,61.73
2019-01-21T09:47:24.993Z,67.50
2019-01-21T09:50:06.489Z,60.03
2019-01-21T09:52:48.046Z,68.47
2019-01-21T09:55:29.333Z,68.67
2019-01-21T09:58:11.348Z,58.67
2019-01-21T10:00:52.865Z,61.30
2019-01-21T10:03:34.202Z,63.80
2019-01-21T10:06:15.700Z,65.50
2019-01-21T10:08:57.041Z,60.00
2019-01-21T10:11:38.186Z,60.50
2019-01-21T10:14:45.972Z,69.73
2019-01-21T10:17:53.812Z,59.57
2019-01-21T10:21:01.558Z,65.43
2019-01-21T10:24:09.271Z,64.83
2019-01-21T10:27:17.087Z,68.97
2019-01-21T10:30:24.761Z,65.57
2019-01-21T10:33:32.537Z,63.20
2019-01-21T10:36:14.182Z,60.83
2019-01-21T10:38:55.329Z,58.07
2019-01-21T10:41:36.889Z,58.73
2019-01-21T10:44:18.216Z,59.03
2019-01-21T10:46:59.550Z,58.90
2019-01-21T10:50:07.351Z,71.73
2019-01-21T10:53:15.502Z,57.97
2019-01-21T10:56:23.259Z,59.83
2019-01-21T10:59:31.065Z,64.83
2019-01-21T11:02:38.965Z,58.13
2019-01-21T11:05:46.773Z,68.70
2019-01-21T11:08:54.532Z,52.97
2019-01-21T11:12:02.338Z,62.40
2019-01-21T11:15:17.513Z,60.80
2019-01-21T11:18:25.349Z,56.97
2019-01-21T11:21:33.047Z,57.40
2019-01-21T11:24:40.977Z,60.17
2019-01-21T11:31:15.949Z,60.43
2019-01-21T11:33:57.360Z,55.77
2019-01-21T11:36:38.560Z,59.30
2019-01-21T11:39:19.993Z,56.90
2019-01-21T11:42:01.374Z,67.20
2019-01-21T11:44:42.705Z,60.10
2019-01-21T11:50:10.532Z,65.47
2019-01-21T11:52:49.394Z,59.77
2019-01-21T11:55:54.158Z,58.87
2019-01-21T11:59:01.846Z,60.83
2019-01-21T12:02:09.697Z,66.60
2019-01-21T12:05:01.481Z,61.90
2019-01-21T12:08:09.276Z,63.23
2019-01-21T12:11:02.616Z,59.47
2019-01-21T12:14:10.343Z,58.70
2019-01-21T12:17:18.064Z,58.87
2019-01-21T12:20:25.756Z,54.93
2019-01-21T12:23:33.475Z,57.37
2019-01-21T12:26:41.164Z,61.57
2019-01-21T12:29:49.023Z,56.17
2019-01-21T12:32:30.300Z,55.43
2019-01-21T12:35:11.981Z,65.27
2019-01-21T12:37:53.644Z,54.17
2019-01-21T12:40:35.392Z,55.17
2019-01-21T12:43:16.933Z,47.23
2019-01-21T12:45:58.611Z,55.63
2019-01-21T12:48:40.237Z,56.03
2019-01-21T12:51:21.134Z,66.50
2019-01-21T12:54:02.404Z,62.67
2019-01-21T12:56:43.519Z,56.47
2019-01-21T12:59:24.878Z,59.90
2019-01-21T13:02:06.493Z,63.87
2019-01-21T13:04:47.632Z,61.57
2019-01-21T13:07:29.325Z,54.43
2019-01-21T13:10:10.549Z,59.77
2019-01-21T13:13:06.853Z,58.03
2019-01-21T13:16:00.067Z,57.30
2019-01-21T13:19:07.848Z,61.73
2019-01-21T13:22:15.679Z,57.80
2019-01-21T13:25:23.530Z,55.53
2019-01-21T13:28:04.791Z,58.87
2019-01-21T13:30:46.414Z,63.40
2019-01-21T13:33:27.894Z,53.87
2019-01-21T13:36:09.430Z,55.30
2019-01-21T13:38:50.896Z,53.00
2019-01-21T13:44:44.617Z,63.90
2019-01-21T13:50:07.683Z,51.77
2019-01-21T13:52:49.024Z,64.77
2019-01-21T13:55:30.812Z,56.20
2019-01-21T14:00:54.130Z,60.50
2019-01-21T14:03:35.758Z,51.37
2019-01-21T14:06:17.557Z,51.67
2019-01-21T14:08:58.802Z,55.47
2019-01-21T14:11:40.427Z,54.97
2019-01-21T14:17:10.675Z,59.83
2019-01-21T14:20:16.715Z,52.60
2019-01-21T14:23:25.380Z,56.77
2019-01-21T14:26:31.814Z,53.03
2019-01-21T14:29:12.939Z,54.53
2019-01-21T14:31:54.540Z,53.90
2019-01-21T14:34:59.260Z,47.67
2019-01-21T14:38:06.952Z,51.80
2019-01-21T14:41:15.216Z,49.40
2019-01-21T14:44:22.922Z,54.37
2019-01-21T14:47:30.608Z,49.67
2019-01-21T14:50:38.384Z,55.30
2019-01-21T14:53:46.150Z,60.47
2019-01-21T14:56:37.737Z,57.80
2019-01-21T14:59:45.462Z,53.33
2019-01-21T15:02:33.641Z,54.20
2019-01-21T15:05:21.704Z,57.33
2019-01-21T15:08:29.524Z,51.87
2019-01-21T15:11:37.328Z,63.10
2019-01-21T15:14:45.141Z,59.23
2019-01-21T15:17:52.828Z,51.50
2019-01-21T15:21:00.673Z,56.13
2019-01-21T15:24:08.473Z,58.07
2019-01-21T15:27:16.282Z,47.27
2019-01-21T15:29:57.674Z,54.90
2019-01-21T15:32:38.736Z,59.13
2019-01-21T15:35:46.586Z,50.20
2019-01-21T15:38:27.510Z,52.00
2019-01-21T15:41:09.192Z,52.33
2019-01-21T15:43:50.682Z,52.53
2019-01-21T15:46:32.035Z,49.93
2019-01-21T15:49:13.275Z,58.23
2019-01-21T15:51:54.459Z,54.87
2019-01-21T15:54:36.495Z,63.73
2019-01-21T15:57:17.816Z,53.47
2019-01-21T15:59:59.106Z,58.77
2019-01-21T16:02:40.596Z,57.10
2019-01-21T16:05:22.214Z,55.97
2019-01-21T16:10:45.655Z,60.03
2019-01-21T16:13:27.169Z,68.93
2019-01-21T16:16:08.482Z,56.40
2019-01-21T16:18:49.944Z,59.77
2019-01-21T16:21:31.340Z,61.67
2019-01-21T16:27:40.882Z,70.57
2019-01-21T16:30:48.619Z,60.57
2019-01-21T16:33:56.485Z,60.90
2019-01-21T16:37:04.258Z,52.73
2019-01-21T16:40:11.955Z,64.73
2019-01-21T16:43:00.762Z,67.33
2019-01-21T16:45:42.325Z,59.10
2019-01-21T16:48:23.868Z,55.77
2019-01-21T16:51:05.370Z,61.40
2019-01-21T16:53:47.013Z,59.17
2019-01-21T16:56:28.581Z,56.57
2019-01-21T16:59:10.332Z,53.30
2019-01-21T17:01:51.671Z,57.50
2019-01-21T17:04:33.104Z,57.70
2019-01-21T17:07:14.643Z,68.03
2019-01-21T17:09:58.087Z,54.37
2019-01-21T17:12:39.209Z,57.27
2019-01-21T17:15:21.080Z,51.50
2019-01-21T17:18:05.330Z,54.43
2019-01-21T17:20:46.365Z,50.60
2019-01-21T17:23:27.830Z,56.93
2019-01-21T17:25:57.687Z,64.87
2019-01-21T17:28:27.724Z,64.37
2019-01-21T17:31:18.129Z,50.93
2019-01-21T17:34:06.911Z,61.13
2019-01-21T17:36:55.791Z,52.37
2019-01-21T17:39:44.713Z,67.03
2019-01-21T17:42:33.466Z,55.40
2019-01-21T17:45:22.417Z,59.83
2019-01-21T17:48:11.300Z,53.90
2019-01-21T17:51:00.153Z,50.37
2019-01-21T17:53:51.433Z,48.60
2019-01-21T17:56:39.795Z,60.60
2019-01-21T17:59:28.703Z,54.53
2019-01-21T18:02:17.659Z,52.67
2019-01-21T18:05:06.940Z,58.23
2019-01-21T18:07:55.865Z,59.23
2019-01-21T18:10:44.981Z,51.90
2019-01-21T18:13:33.900Z,56.20
2019-01-21T18:16:22.754Z,59.30
2019-01-21T18:19:11.598Z,56.20
2019-01-21T18:22:00.419Z,58.30
2019-01-21T18:24:49.242Z,56.57
2019-01-21T18:27:38.123Z,55.77
2019-01-21T18:30:27.570Z,53.77
2019-01-21T18:33:16.362Z,60.63
2019-01-21T18:36:05.300Z,56.87
2019-01-21T18:38:46.408Z,59.73
2019-01-21T18:41:27.741Z,48.80
2019-01-21T18:44:09.312Z,53.00
2019-01-21T18:46:50.903Z,52.13
2019-01-21T18:49:32.467Z,58.90
2019-01-21T18:52:13.989Z,55.53
2019-01-21T18:54:55.358Z,55.27
2019-01-21T19:00:19.152Z,61.30
2019-01-21T19:03:00.556Z,57.27
2019-01-21T19:05:42.221Z,59.37
2019-01-21T19:08:23.885Z,59.47
2019-01-21T19:11:05.434Z,57.13
2019-01-21T19:16:28.861Z,54.73
2019-01-21T19:19:10.381Z,57.37
2019-01-21T19:21:53.624Z,52.63
2019-01-21T19:24:35.451Z,55.47
2019-01-21T19:27:16.987Z,53.53
2019-01-21T19:29:58.668Z,62.37
2019-01-21T19:32:40.038Z,54.27
2019-01-21T19:35:21.564Z,56.73
2019-01-21T19:38:07.820Z,71.73
2019-01-21T19:40:48.834Z,57.73
2019-01-21T19:43:30.396Z,53.70
2019-01-21T19:46:11.963Z,55.07
2019-01-21T19:48:53.214Z,63.53
2019-01-21T19:51:35.182Z,58.87
2019-01-21T19:54:05.621Z,56.23
2019-01-21T19:56:54.700Z,64.40
2019-01-21T19:59:43.782Z,59.40
2019-01-21T20:02:14.018Z,60.10
2019-01-21T20:05:03.066Z,60.33
2019-01-21T20:07:52.154Z,61.20
2019-01-21T20:10:41.101Z,54.60
2019-01-21T20:13:30.135Z,59.03
2019-01-21T20:16:19.300Z,68.90
2019-01-21T20:19:08.613Z,61.97
2019-01-21T20:21:57.806Z,76.90
2019-01-21T20:24:46.750Z,62.37
2019-01-21T20:27:54.695Z,60.57
2019-01-21T20:30:43.886Z,57.70
2019-01-21T20:33:32.925Z,69.83
2019-01-21T20:36:22.099Z,65.20
2019-01-21T20:39:11.353Z,68.73
2019-01-21T20:41:53.156Z,63.30
2019-01-21T20:44:35.100Z,64.40
2019-01-21T20:47:05.069Z,71.83
2019-01-21T20:49:53.836Z,67.57
2019-01-21T20:52:42.591Z,60.33
2019-01-21T20:55:31.487Z,59.23
2019-01-21T20:58:20.259Z,63.20
2019-01-21T21:01:09.056Z,63.33
2019-01-21T21:03:57.875Z,66.47
2019-01-21T21:06:46.630Z,63.43
2019-01-21T21:09:35.447Z,63.30
2019-01-21T21:12:25.929Z,63.93
2019-01-21T21:15:19.250Z,64.07
2019-01-21T21:18:08.774Z,62.60
2019-01-21T21:20:58.192Z,66.30
2019-01-21T21:23:47.328Z,63.17
2019-01-21T21:26:36.536Z,70.63
2019-01-21T21:29:25.624Z,61.93
2019-01-21T21:35:03.549Z,67.33
2019-01-21T21:37:44.407Z,63.13
2019-01-21T21:40:25.805Z,69.27
2019-01-21T21:43:09.693Z,64.30
2019-01-21T21:45:50.924Z,63.03
2019-01-21T21:48:32.527Z,59.77
2019-01-21T21:51:13.555Z,61.83
2019-01-21T21:53:55.302Z,63.07
2019-01-21T21:56:36.869Z,68.67
2019-01-21T21:59:19.501Z,70.03
2019-01-21T22:02:01.372Z,66.67
2019-01-21T22:04:44.736Z,63.50
2019-01-21T22:07:26.948Z,66.00
2019-01-21T22:10:08.847Z,69.07
2019-01-21T22:12:50.241Z,74.30
2019-01-21T22:15:31.754Z,69.53
2019-01-21T22:18:12.645Z,71.70
2019-01-21T22:20:54.247Z,79.37
2019-01-21T22:23:36.521Z,83.03
2019-01-21T22:26:18.197Z,72.47
2019-01-21T22:28:59.467Z,80.00
2019-01-21T22:31:41.633Z,80.03
2019-01-21T22:34:23.557Z,74.50
2019-01-21T22:37:04.771Z,76.00
2019-01-21T22:39:35.305Z,75.67
2019-01-21T22:42:24.070Z,68.97
2019-01-21T22:45:13.354Z,76.10
2019-01-21T22:48:04.662Z,76.20
2019-01-21T22:50:53.424Z,69.40
2019-01-21T22:53:42.361Z,72.30
2019-01-21T22:56:31.238Z,63.77
2019-01-21T22:59:20.085Z,69.57
2019-01-21T23:02:08.853Z,71.23
2019-01-21T23:04:57.624Z,80.43
2019-01-21T23:07:46.385Z,81.10
2019-01-21T23:10:36.854Z,72.20
2019-01-21T23:13:25.626Z,67.13
2019-01-21T23:16:14.918Z,66.73
2019-01-21T23:19:03.721Z,76.80
2019-01-21T23:21:52.478Z,82.07
2019-01-21T23:24:41.259Z,72.43
2019-01-21T23:27:30.045Z,83.00
2019-01-21T23:30:12.670Z,74.50
2019-01-21T23:35:51.164Z,77.30
2019-01-21T23:38:32.211Z,77.23
2019-01-21T23:41:13.550Z,82.70
2019-01-21T23:43:54.880Z,80.70
2019-01-21T23:46:35.824Z,73.83
2019-01-21T23:49:17.415Z,70.87
2019-01-21T23:51:59.890Z,78.30
2019-01-21T23:54:40.747Z,78.43
2019-01-21T23:57:22.582Z,76.37
2019-01-21T23:59:52.455Z,77.70
